Weather at Dewitt Heliport

Public forecast

Using degrees Fahrenheit for public forecast. Weather courtesy of forecast.io.

Closest aviation weather report (METAR) to Dewitt Heliport

Closest report is Greater Rochester International Airport, 8.3 nm (15.3 km) SW. Retrieved 2021/07/31 20:54 UTC (37 minutes ago):

KROC 312054Z 25004KT 10SM SCT055 BKN090 22/09 A2995 RMK AO2 SLP146 T02170094 58016

Closest aviation forecast (TAF) to Dewitt Heliport

Closest forecast is Greater Rochester International Airport, 8.3 nm (15.3 km) SW. Retrieved 2021/07/31 18:36 UTC (3 hours ago):

TAF KROC 311734Z 3118/0118 27006KT P6SM BKN045 FM312100 35005KT P6SM SCT050 SCT090 FM010200 16004KT P6SM BKN090 FM010700 20005KT P6SM BKN120 FM011300 20006KT P6SM VCSH BKN050 FM011500 19006KT 6SM -SHRA BKN035 FM011700 17007KT 4SM SHRA BR VCTS OVC025CB